Time;durP1;ratioP1;P1;durP2;ratioP2;P2;SDS_P1;SDS_P2;PMS_P1;PMS_P2;Temp;Humidity;BMP_temperature;BMP_pressure;BME280_temperature;BME280_humidity;BME280_pressure;Samples;Min_cycle;Max_cycle;Signal;HPM_P1;HPM_P2
2023/04/29 00:01:58;;;;;;;29.25;19.55;;;9.60;99.90;;;;;;5016244;28;20048;-76
2023/04/29 00:04:25;;;;;;;30.55;19.23;;;9.60;99.90;;;;;;5015988;28;20553;-75
2023/04/29 00:06:50;;;;;;;29.10;19.40;;;9.60;99.90;;;;;;5015687;28;20528;-76
2023/04/29 00:09:16;;;;;;;30.42;19.65;;;9.60;99.90;;;;;;5015623;28;20046;-76
2023/04/29 00:11:42;;;;;;;28.70;19.63;;;9.50;99.90;;;;;;5016705;28;20085;-75
2023/04/29 00:14:08;;;;;;;32.10;16.15;;;9.50;99.90;;;;;;4999532;28;20508;-75
2023/04/29 00:16:34;;;;;;;9.43;4.70;;;9.50;99.90;;;;;;5015704;28;20045;-75
2023/04/29 00:19:00;;;;;;;0.40;0.00;;;9.50;99.90;;;;;;5015640;28;20050;-76
2023/04/29 00:21:26;;;;;;;0.13;0.10;;;9.50;99.90;;;;;;5016924;28;20061;-76
2023/04/29 00:23:52;;;;;;;0.88;0.88;;;9.50;99.90;;;;;;5016456;28;20054;-75
2023/04/29 00:26:18;;;;;;;0.00;0.00;;;9.50;99.90;;;;;;4983312;28;20046;-75
2023/04/29 00:28:44;;;;;;;36.67;21.30;;;9.40;99.90;;;;;;5015668;28;20049;-75
2023/04/29 00:31:09;;;;;;;32.83;21.40;;;9.50;99.90;;;;;;5015218;28;20045;-74
2023/04/29 00:33:35;;;;;;;30.67;20.02;;;9.40;99.90;;;;;;5016915;28;20042;-74
2023/04/29 00:36:01;;;;;;;34.38;20.63;;;9.40;99.90;;;;;;5016028;28;20042;-73
2023/04/29 00:38:27;;;;;;;32.05;21.20;;;9.40;99.90;;;;;;5015075;28;20104;-73
2023/04/29 00:40:54;;;;;;;33.63;20.42;;;9.60;99.90;;;;;;5014455;28;20054;-72
2023/04/29 00:43:20;;;;;;;27.33;18.17;;;9.50;99.90;;;;;;5015199;28;20050;-74
2023/04/29 00:45:46;;;;;;;29.00;19.08;;;9.40;99.90;;;;;;5014844;28;20108;-75
2023/04/29 00:48:14;;;;;;;27.13;17.83;;;9.40;99.90;;;;;;4999629;28;20133;-74
2023/04/29 00:50:41;;;;;;;30.92;17.15;;;9.40;99.90;;;;;;5015971;28;20042;-74
2023/04/29 00:53:07;;;;;;;26.48;16.30;;;9.40;99.90;;;;;;5016286;28;20061;-73
2023/04/29 00:55:34;;;;;;;27.42;16.13;;;9.30;99.90;;;;;;4998523;28;20045;-73
2023/04/29 00:58:01;;;;;;;27.63;15.48;;;9.30;99.90;;;;;;5015885;28;20081;-74
2023/04/29 01:00:27;;;;;;;23.25;14.82;;;9.20;99.90;;;;;;5014899;28;20058;-74
2023/04/29 01:02:55;;;;;;;23.98;13.40;;;9.30;99.90;;;;;;5015657;28;20365;-74
2023/04/29 01:05:24;;;;;;;24.25;13.80;;;9.30;99.90;;;;;;5014667;28;20154;-73
2023/04/29 01:08:28;;;;;;;22.92;13.18;;;9.30;99.90;;;;;;5015652;28;20050;-74
2023/04/29 01:11:06;;;;;;;23.45;14.57;;;9.30;99.90;;;;;;4999061;28;20548;-74
2023/04/29 01:13:40;;;;;;;21.83;13.75;;;9.30;99.90;;;;;;5015622;28;20071;-75
2023/04/29 01:16:16;;;;;;;25.50;14.23;;;9.10;99.90;;;;;;5014595;28;20099;-75
2023/04/29 01:18:48;;;;;;;23.83;13.88;;;9.30;99.90;;;;;;5015545;28;20057;-75
2023/04/29 01:21:14;;;;;;;22.35;13.82;;;9.10;99.90;;;;;;4998994;28;20129;-75
2023/04/29 01:23:40;;;;;;;25.90;14.55;;;9.20;99.90;;;;;;5015620;28;20077;-75
2023/04/29 01:26:07;;;;;;;21.33;13.40;;;9.20;99.90;;;;;;5015237;28;20147;-74
2023/04/29 01:28:41;;;;;;;22.33;13.23;;;9.50;99.90;;;;;;4997723;28;20129;-74
2023/04/29 01:31:18;;;;;;;24.65;13.75;;;9.20;99.90;;;;;;4998122;28;20056;-74
2023/04/29 01:33:54;;;;;;;22.73;12.65;;;9.20;99.90;;;;;;5014573;28;20132;-74
2023/04/29 01:36:26;;;;;;;21.77;13.38;;;9.20;99.90;;;;;;5015298;28;20046;-74
2023/04/29 01:39:20;;;;;;;23.13;13.25;;;9.10;99.90;;;;;;5014802;28;20057;-74
2023/04/29 01:41:55;;;;;;;;;;;9.20;99.90;;;;;;5014538;28;20060;-73
2023/04/29 01:44:25;;;;;;;20.17;12.10;;;9.10;99.90;;;;;;5015059;28;19927;-74
2023/04/29 01:46:53;;;;;;;23.83;12.70;;;9.10;99.90;;;;;;5015586;28;20053;-73
2023/04/29 01:49:25;;;;;;;26.02;13.98;;;9.10;99.90;;;;;;5015545;28;20054;-73
2023/04/29 01:51:51;;;;;;;23.92;13.93;;;9.10;99.90;;;;;;5014398;28;20140;-73
2023/04/29 01:54:17;;;;;;;24.67;13.00;;;9.10;99.90;;;;;;5014837;28;20118;-74
2023/04/29 01:56:43;;;;;;;24.38;13.63;;;9.10;99.90;;;;;;5013858;28;20092;-72
2023/04/29 01:59:09;;;;;;;22.15;13.38;;;9.10;99.90;;;;;;5014535;28;20489;-73
2023/04/29 02:01:35;;;;;;;22.90;13.25;;;9.10;99.90;;;;;;5015544;28;20045;-74
2023/04/29 02:04:01;;;;;;;24.88;14.00;;;9.10;99.90;;;;;;5013460;28;20520;-74
2023/04/29 02:06:27;;;;;;;26.15;13.52;;;9.00;99.90;;;;;;5013420;28;20049;-73
2023/04/29 02:08:53;;;;;;;29.10;15.23;;;9.10;99.90;;;;;;5014531;28;20095;-74
2023/04/29 02:11:19;;;;;;;26.35;15.55;;;9.20;99.90;;;;;;5014141;28;20097;-74
2023/04/29 02:13:46;;;;;;;24.38;13.68;;;9.10;99.90;;;;;;5013544;28;20050;-74
2023/04/29 02:16:13;;;;;;;21.27;13.65;;;9.10;99.90;;;;;;5014346;28;20061;-74
2023/04/29 02:18:39;;;;;;;29.67;14.60;;;9.10;99.90;;;;;;5013216;28;20046;-74
2023/04/29 02:21:05;;;;;;;27.23;14.70;;;9.00;99.90;;;;;;5014354;28;20497;-75
2023/04/29 02:23:31;;;;;;;29.30;14.85;;;8.90;99.90;;;;;;5014278;28;20498;-74
2023/04/29 02:25:57;;;;;;;26.92;13.93;;;9.40;99.90;;;;;;4996770;28;20053;-75
2023/04/29 02:28:22;;;;;;;24.48;14.23;;;9.00;99.90;;;;;;5014288;28;20053;-74
2023/04/29 02:30:48;;;;;;;24.02;13.50;;;9.00;99.90;;;;;;5014959;28;20046;-75
2023/04/29 02:33:15;;;;;;;25.92;13.25;;;8.90;99.90;;;;;;5014142;28;20544;-75
2023/04/29 02:35:40;;;;;;;23.48;13.82;;;9.20;99.90;;;;;;5013488;28;20132;-74
2023/04/29 02:38:06;;;;;;;22.35;11.88;;;9.00;99.90;;;;;;5012941;28;20465;-74
2023/04/29 02:40:32;;;;;;;25.60;13.07;;;9.40;99.90;;;;;;5013168;28;20056;-73
2023/04/29 02:42:58;;;;;;;25.48;12.52;;;8.90;99.90;;;;;;5014032;28;20048;-74
2023/04/29 02:45:23;;;;;;;19.92;11.73;;;9.00;99.90;;;;;;5014021;28;20041;-74
2023/04/29 02:47:49;;;;;;;21.63;11.73;;;9.00;99.90;;;;;;5013251;28;20088;-74
2023/04/29 02:50:15;;;;;;;22.38;11.88;;;9.00;99.90;;;;;;4996541;28;20398;-74
2023/04/29 02:52:41;;;;;;;23.38;11.32;;;9.00;99.90;;;;;;5012534;28;20089;-74
2023/04/29 02:55:07;;;;;;;19.20;11.40;;;9.00;99.90;;;;;;5013869;28;20064;-74
2023/04/29 02:57:33;;;;;;;19.85;11.63;;;9.10;99.90;;;;;;5013287;28;20095;-75
2023/04/29 02:59:59;;;;;;;20.42;11.60;;;9.00;99.90;;;;;;5014669;28;20042;-75
2023/04/29 03:02:25;;;;;;;24.08;11.52;;;9.00;99.90;;;;;;5012682;28;20125;-74
2023/04/29 03:04:51;;;;;;;23.27;12.15;;;9.00;99.90;;;;;;5012522;28;20054;-75
2023/04/29 03:07:17;;;;;;;19.33;9.85;;;9.00;99.90;;;;;;4996792;28;20049;-75
2023/04/29 03:09:43;;;;;;;17.85;10.00;;;9.10;99.90;;;;;;5013551;28;20381;-75
2023/04/29 03:12:09;;;;;;;19.00;10.15;;;9.20;99.90;;;;;;5013753;28;20566;-75
2023/04/29 03:14:35;;;;;;;19.75;10.32;;;9.00;99.90;;;;;;5013777;28;20046;-75
2023/04/29 03:17:01;;;;;;;18.45;10.30;;;9.00;99.90;;;;;;5013572;28;20092;-74
2023/04/29 03:19:26;;;;;;;21.85;10.88;;;9.00;99.90;;;;;;5013022;28;20086;-74
2023/04/29 03:21:52;;;;;;;18.75;9.90;;;8.90;99.90;;;;;;5013908;28;20049;-75
2023/04/29 03:24:17;;;;;;;16.60;10.10;;;9.00;99.90;;;;;;5012592;28;20046;-74
2023/04/29 03:26:44;;;;;;;17.95;9.70;;;9.00;99.90;;;;;;5012531;28;20073;-75
2023/04/29 03:29:09;;;;;;;17.13;9.55;;;9.00;99.90;;;;;;5013689;28;20124;-75
2023/04/29 03:31:36;;;;;;;16.10;9.32;;;9.00;99.90;;;;;;5012681;28;20570;-74
2023/04/29 03:34:02;;;;;;;17.25;9.40;;;9.00;99.90;;;;;;5013409;28;20097;-75
2023/04/29 03:36:27;;;;;;;18.88;8.98;;;9.00;99.90;;;;;;5012438;28;20093;-75
2023/04/29 03:38:53;;;;;;;17.40;9.75;;;9.00;99.90;;;;;;5014077;28;20100;-75
2023/04/29 03:41:19;;;;;;;18.58;9.70;;;9.00;99.90;;;;;;4997083;28;20050;-75
2023/04/29 03:43:45;;;;;;;17.50;9.43;;;9.00;99.90;;;;;;4996537;28;20100;-75
2023/04/29 03:46:10;;;;;;;14.73;9.13;;;9.00;99.90;;;;;;5013298;28;20358;-74
2023/04/29 03:48:36;;;;;;;19.17;9.38;;;9.00;99.90;;;;;;5012439;28;20119;-74
2023/04/29 03:51:03;;;;;;;18.58;10.43;;;8.70;99.90;;;;;;5012276;28;20046;-74
2023/04/29 03:53:29;;;;;;;15.82;9.32;;;8.90;99.90;;;;;;4995543;28;20053;-74
2023/04/29 03:55:54;;;;;;;17.08;10.05;;;8.80;99.90;;;;;;5012678;28;20089;-74
2023/04/29 03:58:22;;;;;;;16.35;9.57;;;8.80;99.90;;;;;;4996323;28;20081;-74
2023/04/29 04:00:48;;;;;;;19.15;10.20;;;8.90;99.90;;;;;;5013043;28;20482;-73
2023/04/29 04:03:13;;;;;;;18.02;9.88;;;8.90;99.90;;;;;;4996003;28;20053;-73
2023/04/29 04:05:39;;;;;;;18.02;10.00;;;8.90;99.90;;;;;;5013643;28;20054;-74
2023/04/29 04:08:05;;;;;;;20.33;9.90;;;9.10;99.90;;;;;;4995739;28;20085;-75
2023/04/29 04:10:30;;;;;;;16.40;9.52;;;8.90;99.90;;;;;;4995618;28;20041;-74
2023/04/29 04:12:56;;;;;;;16.80;10.00;;;8.90;99.90;;;;;;5012283;28;20050;-73
2023/04/29 04:15:22;;;;;;;18.25;11.18;;;8.90;99.90;;;;;;5012021;28;20056;-74
2023/04/29 04:17:48;;;;;;;19.42;10.32;;;8.90;99.90;;;;;;4999288;28;20156;-74
2023/04/29 04:20:14;;;;;;;18.98;10.50;;;8.90;99.90;;;;;;5017146;28;20038;-73
2023/04/29 04:22:40;;;;;;;20.15;10.57;;;8.80;99.90;;;;;;4999737;28;20427;-73
2023/04/29 04:25:07;;;;;;;17.25;10.23;;;8.80;99.90;;;;;;5015310;28;20132;-74
2023/04/29 04:27:33;;;;;;;16.83;10.45;;;8.80;99.90;;;;;;5015763;28;20085;-74
2023/04/29 04:29:58;;;;;;;19.73;11.23;;;8.70;99.90;;;;;;5016347;28;20085;-74
2023/04/29 04:32:24;;;;;;;19.35;10.88;;;9.00;99.90;;;;;;5015421;28;20050;-73
2023/04/29 04:34:50;;;;;;;24.55;11.93;;;8.80;99.90;;;;;;5016426;28;20154;-74
2023/04/29 04:37:16;;;;;;;23.20;11.68;;;8.80;99.90;;;;;;4998735;28;20509;-74
2023/04/29 04:39:42;;;;;;;19.95;11.45;;;9.00;99.90;;;;;;5016317;28;20085;-73
2023/04/29 04:42:07;;;;;;;19.80;11.50;;;8.80;99.90;;;;;;5015290;28;20096;-73
2023/04/29 04:44:33;;;;;;;19.83;11.52;;;8.90;99.90;;;;;;5015030;28;20052;-74
2023/04/29 04:47:02;;;;;;;19.50;10.95;;;8.90;99.90;;;;;;5016145;28;20371;-74
2023/04/29 04:49:28;;;;;;;19.75;10.52;;;9.10;99.90;;;;;;5015139;28;20117;-74
2023/04/29 04:51:53;;;;;;;23.02;11.20;;;8.80;99.90;;;;;;5015777;28;20173;-73
2023/04/29 04:54:19;;;;;;;15.27;9.98;;;8.90;99.90;;;;;;5015892;28;20501;-73
2023/04/29 04:56:47;;;;;;;18.33;9.80;;;8.90;99.90;;;;;;5015927;28;20049;-73
2023/04/29 04:59:13;;;;;;;17.42;9.82;;;8.90;99.90;;;;;;5015920;28;20053;-73
2023/04/29 05:01:38;;;;;;;17.10;9.18;;;8.90;99.90;;;;;;5015847;28;20046;-73
2023/04/29 05:04:04;;;;;;;15.57;8.77;;;8.90;99.90;;;;;;5015814;28;20042;-73
2023/04/29 05:06:30;;;;;;;15.32;9.60;;;9.00;99.90;;;;;;4982312;28;20060;-73
2023/04/29 05:08:56;;;;;;;20.30;9.93;;;8.90;99.90;;;;;;5014572;28;20494;-73
2023/04/29 05:11:21;;;;;;;15.82;9.88;;;8.90;99.90;;;;;;5015319;28;20089;-73
2023/04/29 05:13:48;;;;;;;18.15;10.57;;;9.10;99.90;;;;;;5014657;28;20046;-73
2023/04/29 05:16:14;;;;;;;18.73;9.77;;;9.00;99.90;;;;;;5014665;28;20038;-73
2023/04/29 05:18:39;;;;;;;21.40;9.85;;;8.90;99.90;;;;;;5015549;28;20053;-73
2023/04/29 05:21:05;;;;;;;19.42;11.23;;;9.00;99.90;;;;;;5014846;28;20050;-73
2023/04/29 05:23:31;;;;;;;22.40;11.13;;;9.00;99.90;;;;;;5014217;28;20485;-73
2023/04/29 05:25:56;;;;;;;20.50;11.07;;;9.00;99.90;;;;;;4997989;28;20458;-73
2023/04/29 05:28:22;;;;;;;17.25;10.50;;;9.00;99.90;;;;;;5013852;28;20057;-73
2023/04/29 05:30:52;;;;;;;20.52;10.30;;;9.00;99.90;;;;;;5014647;28;20100;-73
2023/04/29 05:33:17;;;;;;;19.80;10.63;;;8.80;99.90;;;;;;5014297;28;20073;-73
2023/04/29 05:35:43;;;;;;;21.10;11.02;;;9.00;99.90;;;;;;4998677;28;20469;-74
2023/04/29 05:38:09;;;;;;;21.30;10.27;;;9.00;99.90;;;;;;5015174;28;20046;-73
2023/04/29 05:40:35;;;;;;;17.60;9.68;;;8.90;99.90;;;;;;4981658;28;20046;-73
2023/04/29 05:43:01;;;;;;;18.73;9.63;;;9.00;99.90;;;;;;5015113;28;20046;-73
2023/04/29 05:45:26;;;;;;;16.48;8.80;;;9.00;99.90;;;;;;5014989;28;20096;-73
2023/04/29 05:47:52;;;;;;;18.10;9.60;;;9.10;99.90;;;;;;4997603;28;20136;-73
2023/04/29 05:50:17;;;;;;;15.02;9.05;;;9.10;99.90;;;;;;5014146;28;20049;-73
2023/04/29 05:52:43;;;;;;;18.55;9.93;;;9.10;99.90;;;;;;5014740;28;20061;-74
2023/04/29 05:55:09;;;;;;;17.92;8.80;;;9.10;99.90;;;;;;5014790;28;20046;-73
2023/04/29 05:57:35;;;;;;;17.10;8.80;;;9.10;99.90;;;;;;5014812;28;20085;-73
2023/04/29 06:00:02;;;;;;;15.77;8.75;;;9.20;99.90;;;;;;5014720;28;20050;-73
2023/04/29 06:02:28;;;;;;;14.60;7.97;;;9.20;99.90;;;;;;5014770;28;20049;-74
2023/04/29 06:04:54;;;;;;;12.82;8.20;;;9.20;99.90;;;;;;5014628;28;20042;-73
2023/04/29 06:07:20;;;;;;;18.10;8.32;;;9.20;99.90;;;;;;4981177;28;20041;-73
2023/04/29 06:09:46;;;;;;;14.90;7.82;;;9.30;99.90;;;;;;5014607;28;20042;-73
2023/04/29 06:12:12;;;;;;;15.40;7.95;;;9.30;99.90;;;;;;5014762;28;20053;-73
2023/04/29 06:14:37;;;;;;;15.15;7.55;;;9.30;99.90;;;;;;4997265;28;20054;-73
2023/04/29 06:17:03;;;;;;;11.38;6.35;;;9.40;99.90;;;;;;5014167;28;20477;-73
2023/04/29 06:19:31;;;;;;;14.75;7.25;;;9.40;99.90;;;;;;5013513;28;20045;-73
2023/04/29 06:21:57;;;;;;;10.55;6.90;;;9.50;99.90;;;;;;5013446;28;20482;-73
2023/04/29 06:24:23;;;;;;;11.52;6.53;;;9.50;99.90;;;;;;5013333;28;20137;-72
2023/04/29 06:26:49;;;;;;;11.70;6.57;;;9.50;99.90;;;;;;5014259;28;20205;-73
2023/04/29 06:29:15;;;;;;;13.05;7.05;;;9.50;99.90;;;;;;5014291;28;20082;-72
2023/04/29 06:31:40;;;;;;;12.60;6.60;;;9.60;99.90;;;;;;4996367;28;20565;-72
2023/04/29 06:34:06;;;;;;;11.32;6.43;;;9.70;99.90;;;;;;5013256;28;20092;-74
2023/04/29 06:36:32;;;;;;;12.02;6.95;;;9.60;99.90;;;;;;5013193;28;20046;-73
2023/04/29 06:38:57;;;;;;;13.02;7.07;;;9.70;99.90;;;;;;5013516;28;20049;-72
2023/04/29 06:41:23;;;;;;;10.93;6.60;;;9.70;99.90;;;;;;5013502;28;20091;-72
2023/04/29 06:43:49;;;;;;;12.35;6.72;;;9.70;99.90;;;;;;4997478;28;20049;-73
2023/04/29 06:46:15;;;;;;;12.27;6.15;;;9.70;99.90;;;;;;5014062;28;20482;-74
2023/04/29 06:48:40;;;;;;;12.35;6.78;;;9.80;99.90;;;;;;5014347;28;20050;-73
2023/04/29 06:51:07;;;;;;;11.95;6.57;;;9.70;99.90;;;;;;5012679;28;20508;-73
2023/04/29 06:53:32;;;;;;;9.20;6.18;;;9.80;99.90;;;;;;5013245;28;20072;-73
2023/04/29 06:55:58;;;;;;;12.07;6.18;;;10.00;99.90;;;;;;5014711;28;20046;-73
2023/04/29 06:58:24;;;;;;;10.40;5.55;;;9.80;99.90;;;;;;4997362;28;20045;-73
2023/04/29 07:00:50;;;;;;;11.18;6.25;;;9.80;99.90;;;;;;5013875;28;20042;-73
2023/04/29 07:03:17;;;;;;;11.77;7.18;;;9.80;99.90;;;;;;5013873;28;20133;-73
2023/04/29 07:05:47;;;;;;;15.55;7.03;;;9.80;99.90;;;;;;5013870;28;20108;-73
2023/04/29 07:08:13;;;;;;;12.07;6.72;;;9.80;99.90;;;;;;5013790;28;20052;-72
2023/04/29 07:10:40;;;;;;;9.90;5.97;;;9.80;99.90;;;;;;5013773;28;20049;-72
2023/04/29 07:13:06;;;;;;;12.45;6.47;;;9.80;99.90;;;;;;5012584;28;20057;-73
2023/04/29 07:15:36;;;;;;;10.65;6.15;;;9.80;99.90;;;;;;5013675;28;20054;-72
2023/04/29 07:18:05;;;;;;;11.35;6.72;;;9.90;99.90;;;;;;5013736;28;20133;-71
2023/04/29 07:20:31;;;;;;;9.82;6.05;;;9.90;99.90;;;;;;5013754;28;20042;-72
2023/04/29 07:22:57;;;;;;;11.30;6.60;;;10.00;99.90;;;;;;5013168;28;20462;-72
2023/04/29 07:25:24;;;;;;;10.82;6.00;;;10.00;99.90;;;;;;5014233;28;20054;-70
2023/04/29 07:27:50;;;;;;;10.25;5.97;;;10.00;99.90;;;;;;5012807;28;20061;-70
2023/04/29 07:30:16;;;;;;;12.52;7.05;;;10.00;99.90;;;;;;5014215;28;20046;-70
2023/04/29 07:32:41;;;;;;;10.77;5.57;;;10.00;99.90;;;;;;5014504;28;20149;-71
2023/04/29 07:35:07;;;;;;;10.30;6.10;;;10.00;99.90;;;;;;5012522;28;20081;-72
2023/04/29 07:37:33;;;;;;;9.48;6.03;;;10.00;99.90;;;;;;5013002;28;20137;-75
2023/04/29 07:39:59;;;;;;;9.43;5.40;;;10.10;99.90;;;;;;5013510;28;20052;-72
2023/04/29 07:42:25;;;;;;;8.38;5.30;;;10.10;99.90;;;;;;5012613;28;20049;-72
2023/04/29 07:44:51;;;;;;;8.90;5.22;;;10.20;99.90;;;;;;5013617;28;20046;-72
2023/04/29 07:47:16;;;;;;;9.82;4.90;;;10.10;99.90;;;;;;4996831;28;20038;-72
2023/04/29 07:49:42;;;;;;;7.88;5.03;;;10.10;99.90;;;;;;5013564;28;20115;-71
2023/04/29 07:52:11;;;;;;;9.57;5.13;;;10.10;99.90;;;;;;5015731;28;20053;-70
2023/04/29 07:54:36;;;;;;;10.23;5.20;;;10.20;99.90;;;;;;5000581;28;20042;-72
2023/04/29 07:57:03;;;;;;;10.80;4.65;;;10.20;99.90;;;;;;5015973;28;20119;-70
2023/04/29 07:59:30;;;;;;;10.55;5.57;;;10.20;99.90;;;;;;5016026;28;20513;-72
2023/04/29 08:01:56;;;;;;;10.27;5.15;;;10.20;99.90;;;;;;5017060;28;20048;-72
2023/04/29 08:04:22;;;;;;;9.68;4.97;;;10.30;99.90;;;;;;5016863;28;20133;-73
2023/04/29 08:06:48;;;;;;;7.88;4.38;;;10.30;99.90;;;;;;4999693;28;20100;-74
2023/04/29 08:09:15;;;;;;;8.05;4.43;;;10.30;99.90;;;;;;5016322;28;20463;-73
2023/04/29 08:11:41;;;;;;;9.90;4.55;;;10.50;99.90;;;;;;5017640;28;20112;-73
2023/04/29 08:14:07;;;;;;;9.05;4.50;;;10.50;99.90;;;;;;5015735;28;20068;-72
2023/04/29 08:16:33;;;;;;;9.20;4.40;;;10.50;99.90;;;;;;5015919;28;20566;-72
2023/04/29 08:18:59;;;;;;;9.98;4.50;;;10.50;99.90;;;;;;5015639;28;20132;-72
2023/04/29 08:21:26;;;;;;;8.98;4.50;;;10.60;99.90;;;;;;5015702;28;20132;-72
2023/04/29 08:23:52;;;;;;;9.10;4.50;;;10.60;99.90;;;;;;5015747;28;20049;-72
2023/04/29 08:26:18;;;;;;;9.43;4.40;;;10.70;99.90;;;;;;5015945;28;20116;-71
2023/04/29 08:28:44;;;;;;;10.35;4.20;;;10.80;99.90;;;;;;5016817;28;20045;-71
2023/04/29 08:31:17;;;;;;;8.10;4.47;;;10.80;99.90;;;;;;5017282;28;20107;-70
2023/04/29 08:33:43;;;;;;;10.05;4.68;;;10.80;99.90;;;;;;5016390;28;20046;-70
2023/04/29 08:36:08;;;;;;;7.22;4.57;;;10.90;99.90;;;;;;5015775;28;20054;-71
2023/04/29 08:38:34;;;;;;;6.53;3.80;;;10.90;99.90;;;;;;5016955;28;20096;-73
2023/04/29 08:41:00;;;;;;;7.50;4.10;;;11.00;99.90;;;;;;5016365;28;20042;-73
2023/04/29 08:43:26;;;;;;;8.32;4.38;;;10.90;99.90;;;;;;5015332;28;20128;-72
2023/04/29 08:45:53;;;;;;;9.70;4.32;;;10.90;99.90;;;;;;5015271;28;20050;-72
2023/04/29 08:48:18;;;;;;;7.40;4.85;;;11.00;99.90;;;;;;5016709;28;20176;-72
2023/04/29 08:50:45;;;;;;;8.73;4.20;;;11.10;99.90;;;;;;5016043;28;20132;-72
2023/04/29 08:53:12;;;;;;;9.57;4.40;;;11.10;99.90;;;;;;5014345;28;20058;-74
2023/04/29 08:55:45;;;;;;;10.05;4.93;;;11.10;99.90;;;;;;5015275;28;20521;-74
2023/04/29 08:58:12;;;;;;;7.45;4.38;;;11.10;99.90;;;;;;5014915;28;20045;-74
2023/04/29 09:00:40;;;;;;;6.95;4.35;;;11.20;99.90;;;;;;4998718;28;20481;-74
2023/04/29 09:03:30;;;;;;;8.10;4.93;;;11.20;99.90;;;;;;5014632;28;20054;-74
2023/04/29 09:05:59;;;;;;;7.50;4.45;;;11.20;99.90;;;;;;4999426;28;20077;-75
2023/04/29 09:08:25;;;;;;;7.45;5.00;;;11.20;99.90;;;;;;5014389;28;20132;-72
2023/04/29 09:10:52;;;;;;;7.00;4.70;;;11.30;99.90;;;;;;5015190;28;20189;-73
2023/04/29 09:13:29;;;;;;;8.73;4.82;;;11.30;99.90;;;;;;4999329;28;20050;-72
2023/04/29 09:15:55;;;;;;;6.72;3.90;;;11.30;99.90;;;;;;5016207;28;20050;-72
2023/04/29 09:18:46;;;;;;;6.50;3.25;;;11.30;99.90;;;;;;4982158;28;20048;-75
2023/04/29 09:21:15;;;;;;;6.15;2.75;;;11.30;99.90;;;;;;5015526;28;20056;-73
2023/04/29 09:23:41;;;;;;;7.28;2.53;;;11.40;99.90;;;;;;5015188;28;20052;-75
2023/04/29 09:26:07;;;;;;;4.85;2.30;;;11.40;99.90;;;;;;5014728;28;20095;-75
2023/04/29 09:28:32;;;;;;;5.25;1.98;;;11.50;99.90;;;;;;5013615;28;20381;-71
2023/04/29 09:30:58;;;;;;;3.53;1.80;;;11.50;99.90;;;;;;5014223;28;20052;-76
2023/04/29 09:33:27;;;;;;;4.00;1.85;;;11.50;99.90;;;;;;5013751;28;20046;-75
2023/04/29 09:35:53;;;;;;;3.97;1.92;;;11.50;99.90;;;;;;5013839;28;20073;-73
2023/04/29 09:38:19;;;;;;;4.93;2.08;;;11.60;99.90;;;;;;5014180;28;20156;-77
2023/04/29 09:40:45;;;;;;;3.42;2.13;;;11.60;99.90;;;;;;5013808;28;20056;-74
2023/04/29 09:43:17;;;;;;;5.00;1.98;;;11.60;99.90;;;;;;5014877;28;20045;-74
2023/04/29 09:45:47;;;;;;;6.05;1.90;;;11.60;99.90;;;;;;5014770;28;20107;-74
2023/04/29 09:48:14;;;;;;;6.35;2.03;;;11.70;99.90;;;;;;5014757;28;20042;-73
2023/04/29 09:50:42;;;;;;;4.90;1.77;;;11.80;99.90;;;;;;5014603;28;20093;-74
2023/04/29 09:53:09;;;;;;;4.40;1.67;;;11.70;99.90;;;;;;5013135;28;20093;-75
2023/04/29 09:55:36;;;;;;;4.40;1.95;;;11.80;99.90;;;;;;5014531;28;20121;-73
2023/04/29 09:58:02;;;;;;;3.72;1.80;;;11.80;99.90;;;;;;5015338;28;20042;-70
2023/04/29 10:00:33;;;;;;;5.30;2.13;;;11.70;99.90;;;;;;5014827;28;20352;-74
2023/04/29 10:03:00;;;;;;;5.57;2.30;;;11.80;99.90;;;;;;5014547;28;20054;-76
2023/04/29 10:05:31;;;;;;;5.47;2.90;;;11.80;99.90;;;;;;5015266;28;20140;-74
2023/04/29 10:07:59;;;;;;;6.10;2.90;;;11.80;99.90;;;;;;4997198;28;20042;-72
2023/04/29 10:10:26;;;;;;;4.90;2.75;;;11.90;99.90;;;;;;5014320;28;20051;-73
2023/04/29 10:12:53;;;;;;;3.95;2.47;;;11.90;99.90;;;;;;5012825;28;20096;-73
2023/04/29 10:15:32;;;;;;;4.32;2.00;;;11.90;99.90;;;;;;5012527;28;20119;-72
2023/04/29 10:18:24;;;;;;;4.35;2.42;;;11.80;99.90;;;;;;5014310;28;20096;-75
2023/04/29 10:20:51;;;;;;;6.95;2.33;;;12.10;99.90;;;;;;4996805;28;20054;-75
2023/04/29 10:23:18;;;;;;;5.47;2.90;;;12.10;99.90;;;;;;4980785;28;20430;-75
2023/04/29 10:25:47;;;;;;;11.32;2.58;;;12.20;99.90;;;;;;5016286;28;20046;-72
2023/04/29 10:28:15;;;;;;;4.90;2.80;;;12.20;99.90;;;;;;5015763;28;20041;-73
2023/04/29 10:30:49;;;;;;;6.32;2.92;;;12.20;99.90;;;;;;5014175;28;20082;-75
2023/04/29 10:33:16;;;;;;;5.75;2.88;;;12.30;99.90;;;;;;5013368;28;20096;-73
2023/04/29 10:35:43;;;;;;;6.70;2.92;;;12.70;99.90;;;;;;5014234;28;20058;-74
2023/04/29 10:38:33;;;;;;;5.50;2.90;;;12.40;99.90;;;;;;5013172;28;20057;-74
2023/04/29 10:41:05;;;;;;;6.97;2.90;;;12.40;99.90;;;;;;5013010;28;20103;-74
2023/04/29 10:43:31;;;;;;;5.80;2.97;;;12.40;99.90;;;;;;5012788;28;20513;-72
2023/04/29 10:46:15;;;;;;;6.07;3.10;;;12.40;99.90;;;;;;5012862;28;20093;-73
2023/04/29 10:48:46;;;;;;;6.35;3.45;;;12.50;99.90;;;;;;5014086;28;20050;-71
2023/04/29 10:51:13;;;;;;;7.30;3.40;;;12.50;99.90;;;;;;5013332;28;20508;-73
2023/04/29 10:54:02;;;;;;;5.88;3.33;;;12.50;99.90;;;;;;5013831;28;20123;-72
2023/04/29 10:56:39;;;;;;;5.38;3.50;;;12.50;99.90;;;;;;5014577;28;20111;-75
2023/04/29 10:59:10;;;;;;;5.88;3.55;;;12.60;99.90;;;;;;4997674;28;20099;-74
2023/04/29 11:01:52;;;;;;;8.00;3.50;;;12.60;99.90;;;;;;5013928;28;20038;-73
2023/04/29 11:04:21;;;;;;;7.63;2.97;;;12.60;99.90;;;;;;5013997;28;20044;-73
2023/04/29 11:06:52;;;;;;;9.23;3.55;;;12.70;99.90;;;;;;5013940;28;20057;-73
2023/04/29 11:09:23;;;;;;;6.20;3.17;;;12.70;99.90;;;;;;5013948;28;20046;-74
2023/04/29 11:11:56;;;;;;;5.72;3.15;;;12.70;99.90;;;;;;5014449;28;20054;-72
2023/04/29 11:14:35;;;;;;;6.10;3.40;;;12.80;99.90;;;;;;5014418;28;20058;-74
2023/04/29 11:17:12;;;;;;;7.68;3.08;;;12.80;99.90;;;;;;5014315;28;20132;-73
2023/04/29 11:19:50;;;;;;;7.07;3.92;;;12.80;99.90;;;;;;4996511;28;20132;-72
2023/04/29 11:22:19;;;;;;;7.85;3.70;;;12.90;99.90;;;;;;5013730;28;20108;-72
2023/04/29 11:24:59;;;;;;;5.97;3.80;;;12.90;99.90;;;;;;5013923;28;20042;-70
2023/04/29 11:27:28;;;;;;;8.57;3.55;;;12.90;99.90;;;;;;5016458;28;20041;-75
2023/04/29 11:29:57;;;;;;;8.05;4.10;;;13.00;99.90;;;;;;5017900;28;20385;-75
2023/04/29 11:32:27;;;;;;;7.32;3.85;;;13.00;99.90;;;;;;5017597;28;20125;-76
2023/04/29 11:34:54;;;;;;;7.22;3.50;;;13.00;99.90;;;;;;5016944;28;20054;-76
2023/04/29 11:37:21;;;;;;;6.68;3.40;;;13.00;99.90;;;;;;5017568;28;20053;-75
2023/04/29 11:39:48;;;;;;;5.53;2.55;;;13.10;99.90;;;;;;5016562;28;20434;-76
2023/04/29 11:42:19;;;;;;;4.43;2.35;;;13.10;99.90;;;;;;5016474;28;20152;-75
2023/04/29 11:44:44;;;;;;;4.35;2.28;;;13.20;99.90;;;;;;5016784;28;20056;-76
2023/04/29 11:47:11;;;;;;;5.20;2.00;;;13.20;99.90;;;;;;5016421;28;20054;-78
2023/04/29 11:49:37;;;;;;;4.40;2.30;;;13.20;99.90;;;;;;5017314;28;20351;-75
2023/04/29 11:52:03;;;;;;;4.97;1.75;;;13.20;99.90;;;;;;4999680;28;20065;-75
2023/04/29 11:54:29;;;;;;;5.28;1.98;;;13.30;99.90;;;;;;5017220;28;20045;-76
2023/04/29 11:56:57;;;;;;;5.60;2.00;;;13.30;99.90;;;;;;5016078;28;20046;-75
2023/04/29 11:59:23;;;;;;;5.15;2.20;;;13.70;99.90;;;;;;5017109;28;20049;-75
2023/04/29 12:01:52;;;;;;;6.55;2.42;;;13.30;99.90;;;;;;5017121;28;20048;-75
2023/04/29 12:04:18;;;;;;;2.90;1.75;;;13.30;99.90;;;;;;5016275;28;20060;-76
2023/04/29 12:06:45;;;;;;;2.85;1.60;;;13.30;99.90;;;;;;5016294;28;20139;-75
2023/04/29 12:09:10;;;;;;;3.35;1.90;;;13.40;99.90;;;;;;5016751;28;20124;-75
2023/04/29 12:11:37;;;;;;;3.90;1.98;;;13.40;99.90;;;;;;5015741;28;20046;-74
2023/04/29 12:14:05;;;;;;;3.15;1.55;;;13.40;99.90;;;;;;5016882;28;20056;-76
2023/04/29 12:16:34;;;;;;;5.05;1.95;;;13.40;99.90;;;;;;5016877;28;20046;-76
2023/04/29 12:19:00;;;;;;;2.85;1.60;;;13.40;99.90;;;;;;5016787;28;20042;-77
2023/04/29 12:21:27;;;;;;;4.13;1.52;;;13.40;99.90;;;;;;5016793;28;20050;-78
2023/04/29 12:23:53;;;;;;;3.03;1.50;;;13.40;99.90;;;;;;5015400;28;20490;-75
2023/04/29 12:26:23;;;;;;;3.40;1.77;;;13.50;99.90;;;;;;5016552;28;20125;-78
2023/04/29 12:28:54;;;;;;;5.07;1.50;;;13.50;99.90;;;;;;4999343;28;20549;-77
2023/04/29 12:31:20;;;;;;;3.50;1.63;;;13.50;99.90;;;;;;5015789;28;20502;-77
2023/04/29 12:33:46;;;;;;;4.70;1.30;;;13.60;99.90;;;;;;5015133;28;20050;-75
2023/04/29 12:36:18;;;;;;;2.22;1.60;;;13.60;99.90;;;;;;5016063;28;20052;-75
2023/04/29 12:38:44;;;;;;;3.88;1.10;;;13.60;99.90;;;;;;5016233;28;20141;-75
2023/04/29 12:41:13;;;;;;;3.08;1.17;;;13.60;99.90;;;;;;5016998;28;20041;-75
2023/04/29 12:43:39;;;;;;;3.30;1.23;;;13.60;99.90;;;;;;4998764;28;20493;-75
2023/04/29 12:46:08;;;;;;;5.20;1.63;;;13.60;99.90;;;;;;5015190;28;20129;-76